Time;durP1;ratioP1;P1;durP2;ratioP2;P2;SDS_P1;SDS_P2;PMS_P1;PMS_P2;Temp;Humidity;BMP_temperature;BMP_pressure;BME280_temperature;BME280_humidity;BME280_pressure;Samples;Min_cycle;Max_cycle;Signal;HPM_P1;HPM_P2
2021/08/15 00:01:54;;;;;;;77.57;35.85;;;;;;;15.25;81.72;99938.84;5137418;27;20058;-75
2021/08/15 00:04:20;;;;;;;94.60;37.40;;;;;;;15.27;82.12;99938.72;5155995;27;20038;-72
2021/08/15 00:06:46;;;;;;;77.30;35.00;;;;;;;15.24;82.11;99941.66;5155753;27;20054;-72
2021/08/15 00:09:12;;;;;;;76.38;34.30;;;;;;;15.25;81.96;99944.19;5155888;27;20125;-70
2021/08/15 00:11:37;;;;;;;76.03;33.30;;;;;;;15.27;81.81;99938.72;5155095;27;20472;-73
2021/08/15 00:14:03;;;;;;;76.10;33.13;;;;;;;15.27;82.05;99941.41;5155888;27;20043;-75
2021/08/15 00:16:29;;;;;;;71.32;33.85;;;;;;;15.26;81.86;99927.22;5155590;27;20069;-72
2021/08/15 00:18:55;;;;;;;59.63;31.55;;;;;;;15.29;81.71;99934.94;5155420;27;20090;-72
2021/08/15 00:21:21;;;;;;;68.00;29.98;;;;;;;15.28;81.36;99933.25;5155678;27;20495;-72
2021/08/15 00:23:47;;;;;;;64.43;29.55;;;;;;;15.24;81.48;99929.19;5136724;27;20685;-70
2021/08/15 00:26:12;;;;;;;60.65;29.23;;;;;;;15.25;81.53;99928.19;5155579;27;20039;-73
2021/08/15 00:28:38;;;;;;;64.72;30.85;;;;;;;15.23;81.79;99926.66;5155305;27;20046;-71
2021/08/15 00:31:04;;;;;;;60.83;28.75;;;;;;;15.22;81.73;99928.50;5155197;27;20395;-71
2021/08/15 00:33:30;;;;;;;69.97;30.85;;;;;;;15.23;81.98;99930.16;5155350;27;20050;-73
2021/08/15 00:35:56;;;;;;;60.53;27.63;;;;;;;15.22;81.79;99920.50;5155045;27;20034;-70
2021/08/15 00:38:22;;;;;;;60.85;28.13;;;;;;;15.21;81.53;99916.16;5155067;27;20075;-71
2021/08/15 00:40:47;;;;;;;56.65;27.70;;;;;;;15.19;81.56;99918.13;5154758;27;20172;-74
2021/08/15 00:43:13;;;;;;;60.75;26.58;;;;;;;15.18;81.72;99919.09;5155189;27;20402;-71
2021/08/15 00:45:39;;;;;;;56.50;26.77;;;;;;;15.19;81.61;99918.13;5154509;27;20142;-70
2021/08/15 00:48:09;;;;;;;57.92;26.80;;;;;;;15.18;81.47;99911.13;5154676;27;20046;-71
2021/08/15 00:50:35;;;;;;;54.47;25.30;;;;;;;15.15;81.23;99914.03;5154967;27;20045;-69
2021/08/15 00:53:01;;;;;;;58.30;25.65;;;;;;;15.13;81.12;99914.19;5154567;27;20046;-69
2021/08/15 00:55:27;;;;;;;55.17;26.30;;;;;;;15.14;81.16;99920.34;5155204;27;20091;-70
2021/08/15 00:57:53;;;;;;;55.00;25.58;;;;;;;15.12;81.20;99911.69;5154608;27;20038;-71
2021/08/15 01:00:18;;;;;;;56.13;26.20;;;;;;;15.12;81.33;99922.34;5136446;27;20680;-71
2021/08/15 01:02:48;;;;;;;60.25;27.10;;;;;;;15.12;81.70;99917.00;5154505;27;20062;-72
2021/08/15 01:05:15;;;;;;;53.90;25.52;;;;;;;15.10;81.66;99914.47;5154513;27;20035;-69
2021/08/15 01:07:42;;;;;;;52.20;25.45;;;;;;;15.09;81.51;99917.28;5154220;27;20050;-71
2021/08/15 01:10:16;;;;;;;59.20;24.57;;;;;;;15.04;81.33;99915.88;5136130;27;20502;-71
2021/08/15 01:12:42;;;;;;;49.13;23.58;;;;;;;15.01;81.46;99912.66;5154358;27;20299;-72
2021/08/15 01:15:09;;;;;;;51.72;24.45;;;;;;;15.00;81.39;99918.97;5154333;27;20042;-70
2021/08/15 01:17:35;;;;;;;53.03;24.08;;;;;;;14.98;81.38;99908.47;5154216;27;20042;-70
2021/08/15 01:20:01;;;;;;;53.80;24.27;;;;;;;14.95;81.33;99906.06;5154250;27;20045;-72
2021/08/15 01:22:27;;;;;;;51.10;23.33;;;;;;;14.93;81.59;99907.19;5153899;27;20098;-68
2021/08/15 01:24:55;;;;;;;49.42;21.75;;;;;;;14.92;81.14;99909.03;5153646;27;20494;-71
2021/08/15 01:27:21;;;;;;;52.15;23.17;;;;;;;14.92;81.14;99906.34;5154132;27;20095;-70
2021/08/15 01:29:48;;;;;;;51.63;22.92;;;;;;;14.92;81.04;99900.22;5154150;27;20498;-72
2021/08/15 01:32:16;;;;;;;47.97;22.98;;;;;;;14.91;81.21;99896.69;5154004;27;20471;-70
2021/08/15 01:34:46;;;;;;;49.47;22.77;;;;;;;14.88;81.12;99889.81;5154226;27;20035;-70
2021/08/15 01:37:12;;;;;;;42.85;21.13;;;;;;;14.95;80.41;99898.06;5153754;27;20065;-70
2021/08/15 01:39:41;;;;;;;42.13;20.55;;;;;;;15.03;80.10;99898.22;5153946;27;20035;-70
2021/08/15 01:42:07;;;;;;;42.17;20.55;;;;;;;15.03;79.98;99892.88;5154083;27;20069;-68
2021/08/15 01:44:33;;;;;;;50.70;21.45;;;;;;;14.97;80.59;99906.78;5153999;27;20574;-70
2021/08/15 01:46:59;;;;;;;48.70;22.42;;;;;;;14.95;80.91;99906.06;5153694;27;20038;-70
2021/08/15 01:49:24;;;;;;;47.25;21.45;;;;;;;14.91;80.75;99904.66;5153883;27;20465;-71
2021/08/15 01:51:50;;;;;;;44.60;20.98;;;;;;;14.91;80.70;99899.34;5153819;27;20054;-71
2021/08/15 01:54:16;;;;;;;45.20;21.08;;;;;;;14.92;80.82;99898.38;5153790;27;20091;-70
2021/08/15 01:56:42;;;;;;;44.80;21.33;;;;;;;14.91;80.88;99899.34;5153700;27;20583;-72
2021/08/15 01:59:08;;;;;;;46.95;20.85;;;;;;;14.84;81.07;99888.44;5153878;27;20122;-70
2021/08/15 02:01:34;;;;;;;49.75;19.92;;;;;;;14.82;80.97;99895.72;5150890;27;20126;-72
2021/08/15 02:04:00;;;;;;;43.13;22.48;;;;;;;14.83;81.09;99891.25;5152736;27;20046;-71
2021/08/15 02:06:26;;;;;;;57.17;24.50;;;;;;;14.79;81.25;99897.81;5152969;27;20054;-70
2021/08/15 02:08:52;;;;;;;47.00;21.52;;;;;;;14.77;81.44;99889.13;5153486;27;20398;-71
2021/08/15 02:11:19;;;;;;;45.92;21.67;;;;;;;14.76;81.47;99892.78;5153679;27;20100;-70
2021/08/15 02:13:45;;;;;;;44.60;22.30;;;;;;;14.76;81.29;99896.25;5153475;27;20065;-72
2021/08/15 02:16:12;;;;;;;48.05;22.40;;;;;;;14.77;81.32;99899.78;5153423;27;20111;-71
2021/08/15 02:18:38;;;;;;;52.40;22.20;;;;;;;14.77;81.23;99902.44;5153415;27;20078;-71
2021/08/15 02:21:04;;;;;;;47.08;22.65;;;;;;;14.76;81.35;99900.75;5153402;27;20066;-69
2021/08/15 02:23:29;;;;;;;58.60;21.90;;;;;;;14.76;81.30;99900.75;5153551;27;20046;-71
2021/08/15 02:25:55;;;;;;;50.38;23.63;;;;;;;14.76;81.42;99900.75;5153308;27;20436;-71
2021/08/15 02:28:21;;;;;;;48.97;22.13;;;;;;;14.78;81.20;99906.78;5153443;27;20039;-72
2021/08/15 02:30:47;;;;;;;49.03;22.52;;;;;;;14.79;81.25;99900.47;5153277;27;20091;-69
2021/08/15 02:33:13;;;;;;;46.05;22.60;;;;;;;14.79;81.26;99906.66;5153455;27;20043;-70
2021/08/15 02:35:39;;;;;;;48.30;22.25;;;;;;;14.82;81.13;99894.88;5153740;27;20049;-69
2021/08/15 02:38:05;;;;;;;45.33;21.65;;;;;;;14.81;81.05;99894.03;5157511;27;20039;-69
2021/08/15 02:40:30;;;;;;;47.45;21.90;;;;;;;14.84;81.12;99887.56;5157176;27;20499;-70
2021/08/15 02:42:56;;;;;;;43.00;21.60;;;;;;;14.89;80.95;99895.97;5157349;27;20403;-70
2021/08/15 02:45:24;;;;;;;47.33;23.05;;;;;;;14.92;80.79;99890.38;5157179;27;20034;-70
2021/08/15 02:47:50;;;;;;;50.65;21.80;;;;;;;14.95;80.43;99879.44;5157068;27;20054;-71
2021/08/15 02:50:17;;;;;;;47.90;23.70;;;;;;;14.96;80.63;99886.44;5157424;27;20510;-70
2021/08/15 02:52:43;;;;;;;49.92;23.73;;;;;;;14.96;80.65;99883.78;5157288;27;20043;-72
2021/08/15 02:55:10;;;;;;;52.88;23.40;;;;;;;14.95;80.69;99882.09;5157135;27;20035;-71
2021/08/15 02:57:36;;;;;;;45.75;22.27;;;;;;;14.96;80.86;99885.63;5156834;27;20387;-71
2021/08/15 03:00:06;;;;;;;54.17;22.90;;;;;;;14.97;80.52;99882.81;5156930;27;20052;-71
2021/08/15 03:02:32;;;;;;;47.00;21.40;;;;;;;15.01;80.40;99873.53;5157024;27;20087;-72
2021/08/15 03:04:58;;;;;;;52.38;22.88;;;;;;;15.04;80.20;99878.59;5156839;27;20042;-71
2021/08/15 03:07:26;;;;;;;47.55;22.60;;;;;;;15.10;80.20;99873.69;5156889;27;20043;-72
2021/08/15 03:09:52;;;;;;;45.42;22.15;;;;;;;15.12;80.04;99871.72;5156850;27;20042;-70
2021/08/15 03:12:18;;;;;;;47.80;22.75;;;;;;;15.16;80.03;99878.44;5156861;27;20046;-71
2021/08/15 03:14:44;;;;;;;50.78;24.00;;;;;;;15.17;80.32;99877.47;5156928;27;20039;-70
2021/08/15 03:17:10;;;;;;;44.17;22.40;;;;;;;15.22;80.23;99871.69;5156467;27;20065;-71
2021/08/15 03:19:37;;;;;;;44.80;22.20;;;;;;;15.26;79.85;99876.59;5156749;27;20050;-72
2021/08/15 03:22:03;;;;;;;49.28;23.45;;;;;;;15.31;79.65;99871.66;5156591;27;20088;-70
2021/08/15 03:24:29;;;;;;;50.45;23.10;;;;;;;15.38;79.47;99877.25;5156293;27;20104;-69
2021/08/15 03:26:55;;;;;;;43.78;23.75;;;;;;;15.44;79.54;99878.50;5156199;27;20038;-72
2021/08/15 03:29:21;;;;;;;49.75;23.27;;;;;;;15.52;79.50;99886.63;5156519;27;20038;-71
2021/08/15 03:31:47;;;;;;;51.25;23.25;;;;;;;15.58;79.09;99875.38;5156534;27;20377;-69
2021/08/15 03:34:13;;;;;;;45.63;22.60;;;;;;;15.66;78.62;99871.97;5156392;27;20042;-70
2021/08/15 03:36:40;;;;;;;54.17;23.77;;;;;;;15.74;77.84;99873.91;5156355;27;20087;-72
2021/08/15 03:39:06;;;;;;;55.35;28.58;;;;;;;15.82;77.14;99882.03;5156015;27;20119;-70
2021/08/15 03:41:32;;;;;;;48.47;24.45;;;;;;;15.80;76.46;99870.66;5156003;27;20045;-71
2021/08/15 03:43:58;;;;;;;54.95;24.15;;;;;;;15.77;76.08;99868.28;5156245;27;20042;-71
2021/08/15 03:46:24;;;;;;;50.80;24.13;;;;;;;15.88;76.16;99864.63;5155802;27;20066;-70
2021/08/15 03:48:50;;;;;;;48.17;24.85;;;;;;;15.99;75.79;99873.25;5155619;27;20060;-71
2021/08/15 03:51:16;;;;;;;62.97;31.60;;;;;;;16.06;75.40;99873.50;5155963;27;20038;-70
2021/08/15 03:53:42;;;;;;;55.35;24.88;;;;;;;16.10;74.88;99871.38;5155808;27;20066;-71
2021/08/15 03:56:08;;;;;;;56.55;25.00;;;;;;;16.07;74.60;99871.69;5137524;27;20491;-71
2021/08/15 03:58:33;;;;;;;58.03;25.85;;;;;;;16.12;74.85;99869.41;5155759;27;20194;-71
2021/08/15 04:00:59;;;;;;;54.13;25.83;;;;;;;16.20;74.61;99872.16;5155919;27;20047;-70
2021/08/15 04:03:25;;;;;;;57.13;26.63;;;;;;;16.28;74.36;99866.91;5155885;27;20046;-71
2021/08/15 04:05:55;;;;;;;49.28;26.15;;;;;;;16.33;74.05;99864.63;5155709;27;20046;-72
2021/08/15 04:08:21;;;;;;;59.83;26.08;;;;;;;16.50;73.67;99867.47;5155591;27;20149;-72
2021/08/15 04:10:47;;;;;;;58.95;26.17;;;;;;;16.73;72.86;99865.16;5155681;27;20515;-73
2021/08/15 04:13:12;;;;;;;51.70;25.10;;;;;;;16.92;72.04;99856.19;5155653;27;20479;-71
2021/08/15 04:15:38;;;;;;;50.92;25.80;;;;;;;17.14;71.51;99856.66;5155753;27;20034;-72
2021/08/15 04:18:04;;;;;;;54.38;25.05;;;;;;;17.46;70.91;99860.53;5155532;27;20034;-71
2021/08/15 04:20:30;;;;;;;52.42;26.70;;;;;;;18.72;67.33;99861.63;5155447;27;20139;-71
2021/08/15 04:22:56;;;;;;;47.40;24.40;;;;;;;20.30;61.70;99846.78;5155221;27;20099;-73
2021/08/15 04:25:21;;;;;;;48.47;22.92;;;;;;;21.58;58.06;99847.06;5155473;27;20491;-73
2021/08/15 04:27:47;;;;;;;47.15;23.02;;;;;;;22.38;54.97;99848.06;5155222;27;20035;-72
2021/08/15 04:30:13;;;;;;;40.80;21.08;;;;;;;22.84;52.97;99854.06;5155140;27;20039;-71
2021/08/15 04:32:39;;;;;;;39.55;21.83;;;;;;;23.15;51.51;99842.91;5154680;27;20098;-74
2021/08/15 04:35:06;;;;;;;39.78;21.52;;;;;;;23.77;49.82;99844.97;5155014;27;20125;-74
2021/08/15 04:37:31;;;;;;;44.27;21.40;;;;;;;24.39;48.65;99843.94;5155144;27;20034;-75
2021/08/15 04:39:57;;;;;;;34.83;20.13;;;;;;;25.25;46.29;99852.31;5154813;27;20045;-73
2021/08/15 04:42:23;;;;;;;36.33;20.15;;;;;;;26.11;44.42;99836.06;5155190;27;20155;-74
2021/08/15 04:44:49;;;;;;;37.53;20.67;;;;;;;27.32;41.92;99833.25;5155049;27;20039;-72
2021/08/15 04:47:14;;;;;;;33.42;19.13;;;;;;;28.28;39.37;99826.50;5154850;27;20495;-74
2021/08/15 04:49:40;;;;;;;37.70;19.35;;;;;;;29.35;37.05;99827.50;5155103;27;20095;-74
2021/08/15 04:52:06;;;;;;;34.10;19.13;;;;;;;29.43;36.59;99829.00;5154749;27;20041;-76
2021/08/15 04:54:32;;;;;;;30.92;19.35;;;;;;;29.40;35.74;99827.59;5154697;27;20473;-74
2021/08/15 04:56:59;;;;;;;31.27;19.00;;;;;;;29.70;35.37;99830.13;5154808;27;20475;-74
2021/08/15 04:59:25;;;;;;;34.78;20.08;;;;;;;29.98;35.29;99820.38;5153778;27;20122;-75
2021/08/15 05:01:51;;;;;;;29.95;19.13;;;;;;;29.77;35.54;99824.56;5154746;27;20069;-72
2021/08/15 05:04:17;;;;;;;31.75;18.92;;;;;;;30.31;34.89;99820.69;5154540;27;20445;-74
2021/08/15 05:06:43;;;;;;;34.80;20.60;;;;;;;31.11;33.30;99828.84;5154784;27;20049;-76
2021/08/15 05:09:11;;;;;;;34.97;21.70;;;;;;;30.61;32.97;99823.13;5154269;27;20487;-73
2021/08/15 05:11:37;;;;;;;27.27;17.02;;;;;;;30.76;34.02;99821.72;5154619;27;20074;-75
2021/08/15 05:14:03;;;;;;;27.33;15.07;;;;;;;30.34;33.80;99814.72;5154585;27;20043;-74
2021/08/15 05:16:29;;;;;;;31.88;17.50;;;;;;;30.94;32.92;99820.63;5154768;27;20044;-78
2021/08/15 05:18:54;;;;;;;27.00;16.03;;;;;;;31.52;32.31;99815.75;5154554;27;20050;-75
2021/08/15 05:21:20;;;;;;;27.67;14.47;;;;;;;32.48;31.00;99809.97;5154351;27;20042;-74
2021/08/15 05:23:46;;;;;;;20.53;14.03;;;;;;;31.38;31.69;99820.75;5153923;27;20544;-72
2021/08/15 05:26:12;;;;;;;25.73;15.83;;;;;;;31.51;32.61;99807.78;5153987;27;20066;-75
2021/08/15 05:28:37;;;;;;;22.37;13.63;;;;;;;32.66;30.77;99806.84;5154379;27;20439;-74
2021/08/15 05:31:03;;;;;;;25.27;13.90;;;;;;;33.54;29.37;99805.47;5154235;27;20399;-74
2021/08/15 05:33:29;;;;;;;21.97;13.57;;;;;;;34.08;28.61;99797.16;5154232;27;20038;-77
2021/08/15 05:35:56;;;;;;;22.05;13.27;;;;;;;34.00;28.75;99795.78;5154541;27;20539;-79
2021/08/15 05:38:22;;;;;;;18.43;12.97;;;;;;;33.91;28.24;99795.47;5154080;27;20043;-77
2021/08/15 05:40:48;;;;;;;24.20;13.23;;;;;;;34.00;28.58;99791.09;5154678;27;20360;-74
2021/08/15 05:43:13;;;;;;;22.53;13.17;;;;;;;34.65;27.94;99796.09;5154497;27;20503;-73
2021/08/15 05:45:39;;;;;;;17.83;11.80;;;;;;;34.94;26.55;99795.56;5154420;27;20155;-77
2021/08/15 05:48:06;;;;;;;23.93;12.80;;;;;;;34.09;27.26;99782.34;5154354;27;20058;-76
2021/08/15 05:50:32;;;;;;;;;;;;;;;34.39;27.47;99792.53;5154631;27;20087;-76
2021/08/15 05:52:57;;;;;;;17.13;10.70;;;;;;;35.19;26.66;99780.06;5135108;27;19957;-75
2021/08/15 05:55:23;;;;;;;20.73;10.30;;;;;;;35.96;25.36;99781.69;5153923;27;20487;-75
2021/08/15 05:57:49;;;;;;;13.40;9.80;;;;;;;35.28;25.70;99789.41;5154142;27;20118;-75
2021/08/15 06:00:15;;;;;;;14.95;9.20;;;;;;;35.39;26.19;99781.13;5153408;27;20046;-75
2021/08/15 06:02:45;;;;;;;12.45;9.45;;;;;;;36.40;24.37;99777.25;5135335;27;20261;-76
2021/08/15 06:05:29;;;;;;;13.27;8.57;;;;;;;36.26;24.00;99780.66;5154093;27;20037;-76
2021/08/15 06:08:20;;;;;;;15.32;9.25;;;;;;;36.30;24.08;99772.59;5153422;27;20074;-80
2021/08/15 06:10:45;;;;;;;19.02;9.52;;;;;;;35.74;24.36;99776.56;5156074;27;20077;-74
2021/08/15 06:13:15;;;;;;;17.40;9.73;;;;;;;35.59;24.92;99778.28;5157810;27;20392;-76
2021/08/15 06:15:41;;;;;;;19.60;9.50;;;;;;;35.46;24.92;99781.66;5158012;27;20107;-78
2021/08/15 06:18:09;;;;;;;16.60;10.60;;;;;;;35.83;24.28;99774.84;5138949;27;20074;-77
2021/08/15 06:20:35;;;;;;;18.02;9.35;;;;;;;35.66;24.07;99769.72;5157488;27;20077;-79
2021/08/15 06:23:01;;;;;;;14.38;8.20;;;;;;;35.03;25.24;99770.22;5157516;27;20039;-77
2021/08/15 06:25:26;;;;;;;13.10;8.47;;;;;;;35.13;24.70;99767.44;5157840;27;20125;-76
2021/08/15 06:27:54;;;;;;;15.55;8.35;;;;;;;36.23;24.09;99761.94;5157843;27;20584;-75
2021/08/15 06:30:21;;;;;;;19.55;8.57;;;;;;;36.32;23.31;99764.06;5157474;27;20039;-75
2021/08/15 06:32:56;;;;;;;11.80;7.85;;;;;;;36.25;23.23;99756.13;5157325;27;20049;-76
2021/08/15 06:35:25;;;;;;;13.60;9.32;;;;;;;36.67;23.56;99751.09;5157815;27;20038;-81
2021/08/15 06:37:52;;;;;;;12.40;8.00;;;;;;;37.33;22.71;99754.25;5157343;27;20043;-77
2021/08/15 06:40:22;;;;;;;11.02;7.53;;;;;;;38.48;20.43;99747.63;5157463;27;20034;-75
2021/08/15 06:42:48;;;;;;;10.98;7.10;;;;;;;37.70;20.78;99758.19;5157803;27;20050;-79
2021/08/15 06:45:14;;;;;;;13.10;7.68;;;;;;;38.47;21.09;99754.25;5157118;27;20360;-80
2021/08/15 06:47:40;;;;;;;16.05;7.95;;;;;;;38.16;20.70;99738.19;5157285;27;20082;-77
2021/08/15 06:50:07;;;;;;;15.40;7.93;;;;;;;37.54;21.92;99743.78;5157376;27;20531;-75
2021/08/15 06:52:32;;;;;;;13.45;7.40;;;;;;;37.83;21.28;99737.31;5157024;27;20133;-76
2021/08/15 06:54:59;;;;;;;13.40;7.95;;;;;;;38.55;20.47;99736.16;5157127;27;20082;-77
2021/08/15 06:57:25;;;;;;;13.40;7.90;;;;;;;38.46;20.35;99738.78;5157345;27;20043;-72
2021/08/15 06:59:51;;;;;;;13.05;6.90;;;;;;;38.54;19.79;99747.50;5157161;27;20550;-78
2021/08/15 07:02:17;;;;;;;11.38;6.78;;;;;;;37.37;20.00;99744.28;5157025;27;20047;-73
2021/08/15 07:04:42;;;;;;;14.07;7.07;;;;;;;36.50;21.40;99738.59;5157187;27;20058;-79
2021/08/15 07:07:08;;;;;;;14.38;7.28;;;;;;;36.55;21.43;99740.47;5156165;27;20042;-77
2021/08/15 07:09:34;;;;;;;9.60;6.82;;;;;;;37.10;20.74;99742.09;5156989;27;20046;-76
2021/08/15 07:12:00;;;;;;;15.07;7.47;;;;;;;37.85;20.30;99733.13;5156796;27;20046;-76
2021/08/15 07:14:28;;;;;;;11.82;6.78;;;;;;;38.24;20.27;99736.66;5156556;27;20046;-78
2021/08/15 07:16:56;;;;;;;15.25;7.00;;;;;;;37.42;20.61;99735.13;5138230;27;20119;-80
2021/08/15 07:19:22;;;;;;;14.02;6.93;;;;;;;37.65;20.64;99738.94;5156849;27;20045;-79
2021/08/15 07:21:48;;;;;;;;;;;;;;;37.84;20.24;99725.97;5156124;27;20054;-79
2021/08/15 07:24:13;;;;;;;11.52;7.07;;;;;;;37.13;20.29;99730.50;5156581;27;19938;-79
2021/08/15 07:26:39;;;;;;;14.38;7.53;;;;;;;37.59;20.56;99729.91;5156561;27;20047;-79
2021/08/15 07:29:05;;;;;;;14.15;6.80;;;;;;;37.01;20.81;99722.63;5156442;27;20525;-80
2021/08/15 07:31:30;;;;;;;11.45;7.68;;;;;;;36.40;20.93;99724.91;5137924;27;20390;-79
2021/08/15 07:33:56;;;;;;;11.70;6.68;;;;;;;36.66;20.76;99719.16;5156362;27;20451;-81
2021/08/15 07:36:24;;;;;;;18.80;6.85;;;;;;;35.82;22.00;99729.16;5156138;27;20070;-76
2021/08/15 07:38:49;;;;;;;11.82;6.95;;;;;;;35.79;21.60;99725.06;5155957;27;20034;-79
2021/08/15 07:41:15;;;;;;;19.40;7.82;;;;;;;35.98;21.76;99723.56;5156209;27;20030;-79
2021/08/15 07:43:41;;;;;;;14.75;6.72;;;;;;;35.98;21.81;99732.66;5156356;27;20039;-79
2021/08/15 07:46:32;;;;;;;11.93;7.35;;;;;;;36.57;21.71;99714.25;5156036;27;20132;-73
2021/08/15 07:48:58;;;;;;;15.48;6.95;;;;;;;36.88;21.55;99719.47;5155802;27;20107;-73
2021/08/15 07:51:28;;;;;;;15.70;7.50;;;;;;;36.96;21.29;99712.47;5155709;27;20425;-74
2021/08/15 07:54:19;;;;;;;14.95;8.98;;;;;;;36.67;21.96;99726.31;5156052;27;20138;-74
2021/08/15 07:57:10;;;;;;;20.88;10.98;;;;;;;36.32;22.27;99720.00;5156047;27;20522;-75
2021/08/15 08:00:01;;;;;;;18.65;9.43;;;;;;;36.65;21.38;99723.00;5156073;27;20137;-79
2021/08/15 08:02:52;;;;;;;15.85;7.53;;;;;;;36.57;21.37;99719.75;5155923;27;20124;-75
2021/08/15 08:05:43;;;;;;;20.98;9.45;;;;;;;37.05;21.15;99704.38;5155923;27;20049;-76
2021/08/15 08:08:14;;;;;;;15.50;8.32;;;;;;;36.69;21.28;99718.53;5155354;27;20106;-77
2021/08/15 08:10:41;;;;;;;13.85;7.40;;;;;;;37.17;20.44;99707.53;5156027;27;20483;-78
2021/08/15 08:13:09;;;;;;;13.90;7.45;;;;;;;37.46;19.97;99714.09;5155517;27;20053;-75
2021/08/15 08:15:36;;;;;;;16.58;7.30;;;;;;;37.00;20.68;99718.22;5155785;27;20035;-81
2021/08/15 08:18:02;;;;;;;14.77;7.00;;;;;;;36.45;20.93;99708.31;5155680;27;20047;-75
2021/08/15 08:20:31;;;;;;;;;;;;;;;37.70;19.42;99703.78;5155861;27;20050;-74
2021/08/15 08:22:57;;;;;;;13.55;7.20;;;;;;;36.13;21.61;99693.19;5155443;27;19914;-77
2021/08/15 08:25:22;;;;;;;13.18;7.50;;;;;;;35.62;21.72;99695.16;5155294;27;20041;-74
2021/08/15 08:27:48;;;;;;;16.10;7.28;;;;;;;36.73;21.00;99687.34;5155168;27;20042;-77
2021/08/15 08:30:14;;;;;;;21.95;7.07;;;;;;;37.29;20.58;99696.09;5136720;27;20045;-79
2021/08/15 08:32:40;;;;;;;17.33;6.38;;;;;;;37.24;19.51;99691.44;5154988;27;20459;-76
2021/08/15 08:35:06;;;;;;;16.67;7.18;;;;;;;36.53;20.18;99682.91;5155419;27;20049;-78
2021/08/15 08:37:32;;;;;;;15.60;7.78;;;;;;;36.49;20.40;99690.13;5155298;27;20134;-80
2021/08/15 08:40:00;;;;;;;14.32;7.90;;;;;;;36.22;21.05;99687.88;5155110;27;20621;-80
2021/08/15 08:42:29;;;;;;;17.73;9.50;;;;;;;36.34;21.14;99673.69;5136270;27;20475;-76
2021/08/15 08:44:56;;;;;;;15.60;8.15;;;;;;;36.62;20.57;99674.00;5155075;27;20118;-79
2021/08/15 08:47:22;;;;;;;13.70;8.07;;;;;;;36.42;20.67;99675.84;5154900;27;20051;-77
2021/08/15 08:49:48;;;;;;;;;;;;;;;35.98;21.34;99672.09;5155386;27;20090;-78
2021/08/15 08:52:15;;;;;;;14.23;7.70;;;;;;;35.82;21.39;99668.63;5154817;27;20003;-79
2021/08/15 08:54:40;;;;;;;12.35;8.20;;;;;;;36.67;20.94;99662.91;5154610;27;20054;-80
2021/08/15 08:57:11;;;;;;;17.38;8.32;;;;;;;37.62;19.80;99667.78;5154799;27;20050;-77
2021/08/15 08:59:42;;;;;;;16.92;7.47;;;;;;;36.94;19.83;99665.09;5154585;27;20494;-76
2021/08/15 09:02:08;;;;;;;15.80;7.90;;;;;;;35.93;21.65;99669.41;5154376;27;20050;-77
2021/08/15 09:04:33;;;;;;;20.35;9.23;;;;;;;35.87;21.99;99665.00;5154512;27;20053;-78
2021/08/15 09:07:13;;;;;;;12.88;7.55;;;;;;;35.66;22.16;99653.34;5154753;27;20039;-77
2021/08/15 09:09:41;;;;;;;16.73;8.13;;;;;;;35.98;21.88;99654.75;5154849;27;20091;-79
2021/08/15 09:12:07;;;;;;;15.25;9.00;;;;;;;36.47;20.70;99648.25;5136197;27;20039;-77
2021/08/15 09:14:33;;;;;;;;;;;;;;;37.21;20.13;99642.41;5154933;27;20042;-82
2021/08/15 09:17:02;;;;;;;37.60;20.63;;;;;;;36.67;20.89;99638.91;5136140;27;20439;-77
2021/08/15 09:19:50;;;;;;;16.35;10.63;;;;;;;37.10;20.25;99640.91;5135442;27;20061;-80
2021/08/15 09:22:27;;;;;;;20.20;10.02;;;;;;;36.44;20.98;99640.56;5154093;27;20042;-81
2021/08/15 09:25:10;;;;;;;16.50;8.23;;;;;;;36.73;20.59;99628.66;5154339;27;20066;-77
2021/08/15 09:27:47;;;;;;;14.90;8.23;;;;;;;36.67;20.49;99627.09;5155002;27;20505;-81
2021/08/15 09:30:19;;;;;;;14.48;6.75;;;;;;;36.29;20.09;99633.25;5154401;27;20042;-77
2021/08/15 09:32:52;;;;;;;14.30;8.13;;;;;;;36.19;19.99;99634.19;5154376;27;20050;-78
2021/08/15 09:35:27;;;;;;;15.00;7.40;;;;;;;36.51;20.25;99616.22;5154072;27;20038;-79
2021/08/15 09:38:01;;;;;;;15.25;6.80;;;;;;;37.15;19.74;99621.53;5154263;27;20110;-80
2021/08/15 09:40:41;;;;;;;15.30;7.05;;;;;;;36.23;20.98;99626.97;5135756;27;20502;-80
2021/08/15 09:43:09;;;;;;;16.52;7.00;;;;;;;35.43;21.48;99612.50;5154340;27;20046;-78
2021/08/15 09:45:38;;;;;;;15.40;6.50;;;;;;;36.16;20.82;99611.91;5153348;27;20054;-79
2021/08/15 09:48:18;;;;;;;11.05;6.18;;;;;;;35.78;21.17;99612.50;5153616;27;20138;-78
2021/08/15 09:51:07;;;;;;;16.48;6.95;;;;;;;35.43;22.25;99609.75;5153775;27;20141;-75
2021/08/15 09:53:34;;;;;;;26.65;12.90;;;;;;;35.52;21.80;99593.44;5137016;27;20141;-75
2021/08/15 09:56:01;;;;;;;58.22;35.42;;;;;;;36.09;21.49;99598.47;5154154;27;20038;-79
2021/08/15 09:58:26;;;;;;;;;;;;;;;35.91;21.54;99600.84;5154318;27;20125;-75
2021/08/15 10:00:53;;;;;;;;;;;;;;;36.55;21.17;99588.91;5154273;27;19953;-77
2021/08/15 10:03:19;;;;;;;25.90;14.27;;;;;;;35.92;20.96;99585.97;5135557;27;19915;-78
2021/08/15 10:05:45;;;;;;;24.98;11.30;;;;;;;35.95;21.94;99590.06;5132554;28;20050;-79
2021/08/15 10:08:11;;;;;;;23.00;12.52;;;;;;;37.05;20.73;99574.75;5132448;28;20130;-75
2021/08/15 10:10:37;;;;;;;9.45;5.85;;;;;;;35.82;21.42;99574.22;5133393;28;20133;-76
2021/08/15 10:13:07;;;;;;;15.05;6.53;;;;;;;35.30;22.17;99577.34;5132855;27;20666;-76
2021/08/15 10:15:35;;;;;;;15.00;6.22;;;;;;;34.50;23.20;99570.88;5132847;28;20464;-75
2021/08/15 10:18:04;;;;;;;12.52;6.80;;;;;;;34.28;23.87;99573.94;5114792;28;20047;-79
2021/08/15 10:20:31;;;;;;;17.92;7.75;;;;;;;34.38;23.35;99582.16;5114760;28;20051;-79
2021/08/15 10:23:07;;;;;;;;;;;;;;;33.97;23.93;99576.75;5114939;28;20172;-78
2021/08/15 10:25:35;;;;;;;15.98;7.25;;;;;;;33.78;24.59;99563.56;5114308;28;19983;-76
2021/08/15 10:28:01;;;;;;;9.45;6.35;;;;;;;34.38;23.92;99570.38;5114560;28;20085;-76
2021/08/15 10:30:31;;;;;;;;;;;;;;;34.47;23.58;99558.53;5133048;28;20035;-75
2021/08/15 10:32:57;;;;;;;10.38;6.03;;;;;;;34.85;22.75;99560.81;5132858;28;20356;-76
2021/08/15 10:35:33;;;;;;;10.57;5.90;;;;;;;34.19;23.60;99568.19;5132626;28;20059;-78
2021/08/15 10:38:13;;;;;;;10.40;6.88;;;;;;;33.44;24.04;99568.78;5132638;27;20043;-81
2021/08/15 10:40:39;;;;;;;11.88;6.57;;;;;;;33.02;24.82;99560.47;5132643;28;20043;-79
2021/08/15 10:43:09;;;;;;;64.60;38.20;;;;;;;33.02;24.78;99557.75;5132974;28;20411;-80
2021/08/15 10:45:35;;;;;;;11.77;6.30;;;;;;;33.02;25.22;99546.78;5132711;28;20134;-80
2021/08/15 10:48:09;;;;;;;13.27;8.13;;;;;;;32.90;25.54;99554.41;5132723;28;20192;-78
2021/08/15 10:50:50;;;;;;;9.90;6.15;;;;;;;32.43;25.81;99540.50;5132668;28;20178;-75
2021/08/15 10:53:31;;;;;;;13.90;6.47;;;;;;;32.49;26.51;99543.25;5079263;28;20065;-79
2021/08/15 10:55:59;;;;;;;13.20;5.80;;;;;;;31.38;26.75;99538.38;5132399;27;20387;-77
2021/08/15 10:58:44;;;;;;;11.23;6.32;;;;;;;31.31;27.63;99546.81;5136095;27;20096;-75
2021/08/15 11:01:14;;;;;;;13.43;6.63;;;;;;;31.36;27.51;99543.28;5136682;27;20049;-77
2021/08/15 11:03:49;;;;;;;15.38;6.78;;;;;;;31.41;27.37;99538.69;5136280;27;20047;-75
2021/08/15 11:06:34;;;;;;;16.55;12.05;;;;;;;31.18;28.29;99536.28;5135985;27;20134;-81
2021/08/15 11:09:03;;;;;;;10.80;6.57;;;;;;;31.07;28.14;99530.72;5136480;27;20043;-77
2021/08/15 11:11:41;;;;;;;17.02;5.93;;;;;;;30.87;28.37;99535.94;5100507;27;20054;-77
2021/08/15 11:14:24;;;;;;;12.38;5.90;;;;;;;30.81;28.41;99532.34;5136422;27;20088;-76
2021/08/15 11:16:54;;;;;;;13.05;6.72;;;;;;;30.54;29.39;99535.81;5135860;27;20043;-78
2021/08/15 11:19:20;;;;;;;52.67;22.98;;;;;;;30.44;29.92;99538.41;5135959;27;20074;-78
2021/08/15 11:22:09;;;;;;;11.32;5.93;;;;;;;30.66;29.44;99539.25;5136160;27;20069;-76
2021/08/15 11:24:43;;;;;;;16.70;6.72;;;;;;;30.53;29.37;99533.38;5135966;27;20042;-77
2021/08/15 11:27:15;;;;;;;14.88;8.48;;;;;;;30.66;29.53;99530.25;5136034;27;20058;-80
2021/08/15 11:29:44;;;;;;;11.52;7.93;;;;;;;31.03;29.80;99529.56;5135972;27;20043;-74